Time;durP1;ratioP1;P1;durP2;ratioP2;P2;SDS_P1;SDS_P2;PMS_P1;PMS_P2;Temp;Humidity;BMP_temperature;BMP_pressure;BME280_temperature;BME280_humidity;BME280_pressure;Samples;Min_cycle;Max_cycle;Signal;HPM_P1;HPM_P2
2023/11/26 00:00:53;;;;;;;78.18;37.30;;;1.50;99.90;;;;;;5015366;28;20037;-79
2023/11/26 00:03:20;;;;;;;70.03;35.22;;;1.40;99.90;;;;;;5008326;28;20046;-78
2023/11/26 00:05:47;;;;;;;72.45;35.45;;;1.40;99.90;;;;;;5014207;28;20106;-79
2023/11/26 00:08:14;;;;;;;77.97;36.30;;;1.50;99.90;;;;;;5026796;28;20114;-79
2023/11/26 00:10:41;;;;;;;81.63;41.33;;;1.50;99.90;;;;;;5013088;28;20060;-79
2023/11/26 00:13:08;;;;;;;82.82;41.05;;;1.50;99.90;;;;;;5028875;28;20049;-79
2023/11/26 00:15:35;;;;;;;92.78;42.50;;;1.50;99.90;;;;;;5012705;28;20053;-78
2023/11/26 00:18:02;;;;;;;92.75;39.33;;;1.60;99.90;;;;;;5023547;28;20049;-80
2023/11/26 00:20:29;;;;;;;103.25;39.20;;;1.50;99.90;;;;;;5028430;28;20751;-79
2023/11/26 00:22:56;;;;;;;105.90;40.50;;;1.50;99.90;;;;;;5010921;28;20045;-79
2023/11/26 00:25:23;;;;;;;102.82;38.28;;;1.40;99.90;;;;;;5028727;28;20689;-78
2023/11/26 00:27:50;;;;;;;88.53;34.88;;;1.30;99.90;;;;;;5025964;28;20029;-79
2023/11/26 00:30:17;;;;;;;88.00;37.03;;;1.30;99.90;;;;;;5024907;28;20533;-79
2023/11/26 00:32:44;;;;;;;93.43;39.15;;;1.30;99.90;;;;;;5027531;28;20044;-79
2023/11/26 00:35:12;;;;;;;92.68;38.38;;;1.30;99.90;;;;;;5026301;28;20049;-78
2023/11/26 00:37:39;;;;;;;100.25;40.80;;;1.20;99.90;;;;;;5013172;28;20075;-79
2023/11/26 00:40:06;;;;;;;102.53;40.63;;;1.30;99.90;;;;;;5024134;28;20041;-79
2023/11/26 00:42:33;;;;;;;100.18;38.60;;;1.30;99.90;;;;;;5047508;28;20144;-78
2023/11/26 00:45:00;;;;;;;104.35;39.42;;;1.30;99.90;;;;;;5058815;28;20029;-78
2023/11/26 00:47:29;;;;;;;99.57;38.67;;;1.20;99.90;;;;;;5051194;28;20058;-79
2023/11/26 00:50:01;;;;;;;104.50;39.92;;;1.30;99.90;;;;;;5020985;28;20674;-79
2023/11/26 00:52:28;;;;;;;104.50;41.70;;;1.30;99.90;;;;;;5018917;28;20109;-79
2023/11/26 00:54:55;;;;;;;110.15;39.83;;;1.30;99.90;;;;;;5017092;28;20037;-79
2023/11/26 00:57:22;;;;;;;132.55;43.92;;;1.40;99.90;;;;;;5031859;28;20698;-79
2023/11/26 00:59:49;;;;;;;117.43;43.03;;;1.30;99.90;;;;;;5015143;28;20037;-80
2023/11/26 01:02:16;;;;;;;117.55;43.55;;;1.50;99.90;;;;;;5031000;28;20156;-80
2023/11/26 01:04:43;;;;;;;120.78;44.67;;;1.50;99.90;;;;;;5033225;28;20060;-79
2023/11/26 01:07:11;;;;;;;123.53;42.38;;;1.60;99.90;;;;;;5012946;28;20084;-79
2023/11/26 01:09:38;;;;;;;114.32;40.45;;;1.50;99.90;;;;;;5035968;28;20200;-79
2023/11/26 01:12:05;;;;;;;111.15;41.05;;;1.50;99.90;;;;;;5015740;28;20064;-79
2023/11/26 01:14:35;;;;;;;176.95;47.20;;;1.50;99.90;;;;;;5033239;28;20041;-80
2023/11/26 01:17:02;;;;;;;146.02;43.75;;;1.50;99.90;;;;;;5031195;28;20049;-79
2023/11/26 01:19:29;;;;;;;148.60;45.22;;;1.50;99.90;;;;;;5031657;28;20045;-80
2023/11/26 01:21:56;;;;;;;148.10;44.90;;;1.50;99.90;;;;;;5030993;28;20045;-78
2023/11/26 01:24:22;;;;;;;166.23;46.55;;;1.40;99.90;;;;;;5028300;28;20198;-78
2023/11/26 01:26:49;;;;;;;146.95;48.17;;;1.50;99.90;;;;;;5016100;28;20029;-79
2023/11/26 01:29:16;;;;;;;166.88;47.50;;;1.50;99.90;;;;;;5026147;28;20945;-80
2023/11/26 01:31:43;;;;;;;168.35;46.60;;;1.50;99.90;;;;;;5031644;28;20072;-80
2023/11/26 01:34:10;;;;;;;184.23;48.58;;;1.50;99.90;;;;;;5009246;28;20056;-79
2023/11/26 01:36:39;;;;;;;266.58;59.15;;;1.40;99.90;;;;;;5014872;28;20051;-80
2023/11/26 01:39:07;;;;;;;356.23;66.70;;;1.40;99.90;;;;;;5009954;28;20064;-80
2023/11/26 01:41:36;;;;;;;313.20;63.08;;;1.50;99.90;;;;;;5015027;28;20041;-79
2023/11/26 01:44:16;;;;;;;436.77;69.88;;;1.50;99.90;;;;;;5014039;28;20043;-80
2023/11/26 01:46:44;;;;;;;403.67;66.80;;;1.50;99.90;;;;;;5029948;28;20077;-79
2023/11/26 01:49:12;;;;;;;584.15;90.78;;;1.50;99.90;;;;;;5029213;28;20507;-80
2023/11/26 01:51:42;;;;;;;560.38;81.55;;;1.40;99.90;;;;;;5021538;28;20041;-80
2023/11/26 01:54:10;;;;;;;551.20;80.68;;;1.40;99.90;;;;;;5013652;28;20512;-79
2023/11/26 01:56:37;;;;;;;478.65;80.78;;;1.40;99.90;;;;;;5020301;28;20095;-78
2023/11/26 01:59:04;;;;;;;286.17;58.00;;;1.40;99.90;;;;;;5028303;28;20049;-79
2023/11/26 02:01:32;;;;;;;466.33;77.00;;;1.30;99.90;;;;;;5012246;28;20041;-81
2023/11/26 02:03:59;;;;;;;268.23;53.42;;;1.30;99.90;;;;;;5011376;28;20045;-78
2023/11/26 02:06:26;;;;;;;155.52;48.00;;;1.30;99.90;;;;;;5029179;28;20069;-79
2023/11/26 02:08:53;;;;;;;412.88;71.50;;;1.40;99.90;;;;;;5013582;28;20032;-80
2023/11/26 02:11:20;;;;;;;500.30;77.10;;;1.40;99.90;;;;;;5009843;28;20052;-77
2023/11/26 02:13:47;;;;;;;577.50;83.60;;;1.40;99.90;;;;;;5025703;28;20045;-77
2023/11/26 02:16:14;;;;;;;568.88;88.07;;;1.40;99.90;;;;;;5043919;28;20167;-77
2023/11/26 02:18:42;;;;;;;299.98;56.90;;;1.40;99.90;;;;;;5040814;28;20041;-81
2023/11/26 02:21:09;;;;;;;223.65;49.28;;;1.30;99.90;;;;;;5017152;28;20586;-79
2023/11/26 02:23:37;;;;;;;184.18;49.10;;;1.30;99.90;;;;;;5033176;28;20049;-80
2023/11/26 02:26:10;;;;;;;207.35;51.55;;;1.20;99.90;;;;;;5027443;28;20059;-80
2023/11/26 02:28:40;;;;;;;164.32;44.33;;;1.30;99.90;;;;;;5015340;28;20472;-77
2023/11/26 02:31:07;;;;;;;130.27;39.75;;;1.30;99.90;;;;;;5029229;28;20067;-79
2023/11/26 02:33:35;;;;;;;104.38;36.83;;;1.30;99.90;;;;;;5028070;28;20053;-80
2023/11/26 02:36:25;;;;;;;115.55;36.25;;;1.30;99.90;;;;;;5010940;28;20558;-81
2023/11/26 02:38:52;;;;;;;140.32;40.30;;;1.30;99.90;;;;;;5033394;28;20037;-80
2023/11/26 02:41:19;;;;;;;152.20;42.38;;;1.30;99.90;;;;;;5027241;28;20067;-81
2023/11/26 02:43:46;;;;;;;144.73;44.70;;;1.40;99.90;;;;;;5014065;28;20429;-81
2023/11/26 02:46:14;;;;;;;170.02;47.63;;;1.40;99.90;;;;;;5024512;28;20041;-77
2023/11/26 02:48:41;;;;;;;184.50;50.10;;;1.50;99.90;;;;;;5019725;28;20065;-79
2023/11/26 02:51:08;;;;;;;376.58;70.07;;;1.50;99.90;;;;;;5011829;28;20450;-78
2023/11/26 02:53:35;;;;;;;310.27;60.53;;;1.50;99.90;;;;;;5027704;28;20048;-80
2023/11/26 02:56:02;;;;;;;283.05;56.90;;;1.50;99.90;;;;;;5013778;28;20048;-81
2023/11/26 02:58:29;;;;;;;260.50;58.35;;;1.50;99.90;;;;;;5031332;28;20616;-80
2023/11/26 03:00:57;;;;;;;221.82;55.58;;;1.50;99.90;;;;;;5027150;28;20067;-80
2023/11/26 03:03:24;;;;;;;304.73;64.07;;;1.50;99.90;;;;;;5025142;28;20037;-81
2023/11/26 03:05:54;;;;;;;201.73;51.17;;;1.50;99.90;;;;;;5030946;28;20037;-81
2023/11/26 03:08:21;;;;;;;300.00;58.97;;;1.50;99.90;;;;;;5029720;28;20124;-81
2023/11/26 03:13:56;;;;;;;266.70;59.40;;;1.50;99.90;;;;;;5036281;28;20061;-80
2023/11/26 03:16:39;;;;;;;159.10;44.40;;;1.60;99.90;;;;;;5027429;28;20049;-79
2023/11/26 03:19:08;;;;;;;175.40;47.35;;;1.60;99.90;;;;;;5032010;28;20048;-79
2023/11/26 03:21:36;;;;;;;279.48;56.47;;;1.50;99.90;;;;;;5013038;28;20052;-79
2023/11/26 03:24:04;;;;;;;443.85;74.80;;;1.60;99.90;;;;;;5016670;28;20101;-80
2023/11/26 03:26:31;;;;;;;531.60;81.82;;;1.60;99.90;;;;;;5030016;28;20406;-78
2023/11/26 03:28:58;;;;;;;613.88;88.68;;;1.70;99.90;;;;;;5033324;28;20048;-78
2023/11/26 03:31:26;;;;;;;560.25;85.65;;;1.70;99.90;;;;;;5037824;28;20071;-78
2023/11/26 03:33:52;;;;;;;502.73;79.53;;;1.70;99.90;;;;;;5052704;28;20160;-78
2023/11/26 03:36:21;;;;;;;505.08;81.38;;;1.70;99.90;;;;;;5030639;28;20068;-78
2023/11/26 03:38:48;;;;;;;508.00;75.03;;;1.70;99.90;;;;;;5055784;28;20024;-78
2023/11/26 03:41:15;;;;;;;360.50;64.18;;;1.80;99.90;;;;;;5016642;28;20049;-78
2023/11/26 03:43:42;;;;;;;508.55;74.72;;;1.70;99.90;;;;;;5035737;28;20044;-79
2023/11/26 03:46:09;;;;;;;509.60;83.78;;;1.70;99.90;;;;;;5025335;28;20046;-77
2023/11/26 03:48:36;;;;;;;476.75;77.35;;;1.70;99.90;;;;;;5044818;28;20149;-78
2023/11/26 03:51:03;;;;;;;583.58;89.03;;;1.80;99.90;;;;;;5012392;28;20714;-77
2023/11/26 03:53:29;;;;;;;481.50;85.82;;;1.80;99.90;;;;;;5024842;28;20180;-77
2023/11/26 03:55:56;;;;;;;588.75;95.07;;;1.90;99.90;;;;;;5028119;28;20454;-76
2023/11/26 03:58:23;;;;;;;776.30;114.93;;;1.90;99.90;;;;;;5024404;28;20092;-78
2023/11/26 04:00:50;;;;;;;589.90;96.03;;;2.00;99.90;;;;;;5011467;28;20048;-78
2023/11/26 04:03:17;;;;;;;707.42;103.50;;;1.90;99.90;;;;;;5013352;28;20053;-76
2023/11/26 04:05:44;;;;;;;839.97;117.30;;;2.00;99.90;;;;;;5029860;28;20041;-77
2023/11/26 04:08:11;;;;;;;844.55;121.32;;;2.00;99.90;;;;;;5025452;28;20053;-77
2023/11/26 04:10:38;;;;;;;778.15;114.60;;;2.00;99.90;;;;;;5027683;28;20045;-77
2023/11/26 04:13:07;;;;;;;589.85;90.43;;;1.90;99.90;;;;;;5026844;28;20372;-77
2023/11/26 04:15:36;;;;;;;746.50;105.95;;;1.90;99.90;;;;;;5024921;28;20511;-77
2023/11/26 04:18:03;;;;;;;598.75;93.25;;;1.90;99.90;;;;;;5029326;28;20053;-76
2023/11/26 04:20:30;;;;;;;784.70;113.72;;;1.90;99.90;;;;;;5026917;28;20041;-77
2023/11/26 04:22:57;;;;;;;547.38;82.88;;;1.90;99.90;;;;;;5055545;28;20170;-76
2023/11/26 04:25:24;;;;;;;699.63;101.57;;;1.90;99.90;;;;;;5051440;28;20036;-75
2023/11/26 04:27:50;;;;;;;610.25;90.50;;;2.00;99.90;;;;;;5036538;28;20127;-77
2023/11/26 04:30:17;;;;;;;659.80;94.07;;;2.10;99.90;;;;;;5028039;28;20136;-77
2023/11/26 04:32:44;;;;;;;737.40;97.93;;;2.10;99.90;;;;;;5032311;28;20107;-76
2023/11/26 04:35:11;;;;;;;626.63;90.75;;;2.10;99.90;;;;;;5013650;28;20060;-77
2023/11/26 04:37:37;;;;;;;866.03;116.90;;;2.10;99.90;;;;;;5011887;28;20046;-76
2023/11/26 04:40:05;;;;;;;758.13;101.45;;;2.10;99.90;;;;;;5029390;28;20049;-76
2023/11/26 04:42:33;;;;;;;757.58;104.70;;;2.20;99.90;;;;;;5028585;28;20559;-75
2023/11/26 04:45:00;;;;;;;933.85;121.97;;;2.20;99.90;;;;;;5029877;28;20388;-75
2023/11/26 04:47:27;;;;;;;748.88;113.63;;;2.30;99.90;;;;;;5022628;28;20030;-75
2023/11/26 04:49:58;;;;;;;718.45;108.13;;;2.20;99.90;;;;;;5030898;28;20655;-75
2023/11/26 04:52:25;;;;;;;860.72;131.02;;;2.30;99.90;;;;;;5025863;28;20132;-76
2023/11/26 04:54:52;;;;;;;851.30;119.07;;;2.20;99.90;;;;;;5017833;28;20119;-76
2023/11/26 04:57:18;;;;;;;894.67;135.25;;;2.20;99.90;;;;;;5027425;28;21363;-76
2023/11/26 04:59:45;;;;;;;850.30;125.15;;;2.30;99.90;;;;;;5012685;28;20052;-75
2023/11/26 05:02:14;;;;;;;944.05;140.18;;;2.30;99.90;;;;;;5028991;28;20041;-75
2023/11/26 05:04:41;;;;;;;850.78;126.53;;;2.30;99.90;;;;;;5027391;28;20041;-79
2023/11/26 05:07:08;;;;;;;854.22;124.82;;;2.40;99.90;;;;;;5027081;28;20137;-76
2023/11/26 05:09:35;;;;;;;869.25;132.65;;;2.40;99.90;;;;;;5024130;28;20049;-75
2023/11/26 05:12:02;;;;;;;952.47;140.57;;;2.40;99.90;;;;;;5029256;28;20053;-76
2023/11/26 05:14:29;;;;;;;918.17;142.93;;;2.50;99.90;;;;;;5027261;28;20049;-76
2023/11/26 05:16:55;;;;;;;739.67;120.88;;;2.50;99.90;;;;;;5028242;28;20115;-77
2023/11/26 05:19:22;;;;;;;769.95;124.93;;;2.40;99.90;;;;;;5023773;28;20045;-76
2023/11/26 05:21:49;;;;;;;736.78;120.65;;;2.50;99.90;;;;;;5033794;28;20045;-76
2023/11/26 05:24:16;;;;;;;837.28;130.45;;;2.50;99.90;;;;;;5009601;28;20045;-75
2023/11/26 05:26:42;;;;;;;795.08;122.88;;;2.40;99.90;;;;;;5018916;28;20385;-76
2023/11/26 05:29:09;;;;;;;856.83;136.60;;;2.50;99.90;;;;;;5041550;28;20037;-76
2023/11/26 05:31:36;;;;;;;725.45;126.93;;;2.60;99.90;;;;;;5031662;28;20284;-76
2023/11/26 05:34:03;;;;;;;640.28;117.18;;;2.50;99.90;;;;;;5031935;28;20041;-76
2023/11/26 05:36:30;;;;;;;649.22;113.10;;;2.50;99.90;;;;;;5021519;28;20136;-76
2023/11/26 05:38:56;;;;;;;648.63;116.82;;;2.60;99.90;;;;;;5030428;28;20116;-76
2023/11/26 05:41:26;;;;;;;495.73;99.75;;;2.50;99.90;;;;;;5022856;28;20044;-75
2023/11/26 05:43:53;;;;;;;714.30;128.85;;;2.60;99.90;;;;;;5030154;28;20083;-76
2023/11/26 05:46:21;;;;;;;759.35;135.15;;;2.60;99.90;;;;;;5007886;28;20342;-75
2023/11/26 05:48:48;;;;;;;694.55;127.45;;;2.60;99.90;;;;;;5031401;28;20041;-77
2023/11/26 05:51:20;;;;;;;699.22;124.45;;;2.70;99.90;;;;;;5028907;28;20037;-76
2023/11/26 05:53:47;;;;;;;761.05;129.20;;;2.70;99.90;;;;;;5014434;28;20199;-76
2023/11/26 05:56:14;;;;;;;530.22;104.43;;;2.70;99.90;;;;;;5010423;28;20041;-74
2023/11/26 05:58:41;;;;;;;836.35;138.40;;;2.60;99.90;;;;;;5024658;28;20056;-76
2023/11/26 06:01:08;;;;;;;829.42;142.50;;;2.70;99.90;;;;;;5027397;28;20044;-74
2023/11/26 06:03:36;;;;;;;625.85;116.90;;;2.70;99.90;;;;;;5024338;28;20041;-75
2023/11/26 06:06:04;;;;;;;596.67;116.03;;;2.70;99.90;;;;;;5025867;28;20044;-76
2023/11/26 06:08:31;;;;;;;692.85;120.95;;;2.70;99.90;;;;;;5022808;28;20189;-76
2023/11/26 06:10:58;;;;;;;728.00;122.93;;;2.70;99.90;;;;;;5006082;28;20045;-76
2023/11/26 06:13:27;;;;;;;522.53;109.18;;;2.80;99.90;;;;;;5008507;28;20045;-75
2023/11/26 06:15:53;;;;;;;423.48;96.30;;;2.70;99.90;;;;;;5015523;28;20067;-76
2023/11/26 06:18:20;;;;;;;434.83;92.97;;;2.70;99.90;;;;;;5024037;28;20495;-76
2023/11/26 06:20:48;;;;;;;322.83;82.00;;;2.80;99.90;;;;;;5028561;28;20148;-75
2023/11/26 06:23:14;;;;;;;345.48;82.43;;;2.80;99.90;;;;;;5011051;28;20045;-77
2023/11/26 06:25:42;;;;;;;348.08;87.20;;;2.80;99.90;;;;;;5005746;28;20588;-76
2023/11/26 06:28:08;;;;;;;362.67;87.53;;;2.80;99.90;;;;;;5029876;28;20045;-76
2023/11/26 06:30:35;;;;;;;402.70;88.35;;;2.80;99.90;;;;;;5024622;28;20041;-76
2023/11/26 06:33:03;;;;;;;350.67;88.05;;;2.80;99.90;;;;;;5029245;28;20060;-77
2023/11/26 06:35:32;;;;;;;305.77;76.85;;;2.80;99.90;;;;;;5039407;28;22409;-75
2023/11/26 06:38:02;;;;;;;342.40;84.05;;;2.80;99.90;;;;;;5026025;28;20052;-76
2023/11/26 06:40:28;;;;;;;365.67;88.55;;;2.80;99.90;;;;;;5022827;28;20056;-75
2023/11/26 06:42:55;;;;;;;316.85;82.15;;;2.90;99.90;;;;;;5029771;28;20033;-77
2023/11/26 06:45:22;;;;;;;363.88;86.78;;;2.90;99.90;;;;;;5022890;28;20045;-77
2023/11/26 06:47:49;;;;;;;335.40;86.15;;;2.90;99.90;;;;;;5013387;28;20045;-76
2023/11/26 06:50:16;;;;;;;345.48;87.13;;;3.00;99.90;;;;;;5029060;28;20167;-77
2023/11/26 06:52:43;;;;;;;349.80;82.55;;;3.00;99.90;;;;;;5013032;28;20037;-77
2023/11/26 06:55:10;;;;;;;363.95;86.32;;;3.00;99.90;;;;;;5010735;28;20053;-76
2023/11/26 06:57:38;;;;;;;328.33;79.32;;;3.00;99.90;;;;;;5007052;28;20044;-75
2023/11/26 07:00:06;;;;;;;313.67;81.68;;;3.00;99.90;;;;;;5022218;28;20041;-75
2023/11/26 07:02:33;;;;;;;285.52;75.07;;;3.00;99.90;;;;;;5020813;28;20040;-73
2023/11/26 07:05:00;;;;;;;267.20;68.65;;;2.90;99.90;;;;;;5026039;28;20049;-75
2023/11/26 07:07:27;;;;;;;252.50;69.60;;;2.80;99.90;;;;;;5018629;28;20048;-74
2023/11/26 07:09:54;;;;;;;243.38;66.00;;;2.80;99.90;;;;;;5018008;28;20041;-76
2023/11/26 07:12:21;;;;;;;224.50;66.22;;;2.90;99.90;;;;;;5004419;28;20045;-74
2023/11/26 07:14:50;;;;;;;237.15;67.40;;;2.80;99.90;;;;;;5025910;28;20772;-75
2023/11/26 07:17:17;;;;;;;248.45;71.63;;;2.80;99.90;;;;;;5020002;28;20052;-75
2023/11/26 07:19:44;;;;;;;252.82;66.57;;;2.90;99.90;;;;;;5024129;28;20130;-76
2023/11/26 07:22:13;;;;;;;279.10;69.82;;;2.90;99.90;;;;;;5023196;28;20405;-75
2023/11/26 07:24:41;;;;;;;238.57;66.20;;;3.00;99.90;;;;;;5026303;28;20052;-76
2023/11/26 07:27:08;;;;;;;261.30;71.32;;;3.10;99.90;;;;;;5021267;28;20052;-75
2023/11/26 07:29:36;;;;;;;250.35;69.80;;;3.00;99.90;;;;;;5017739;28;20048;-75
2023/11/26 07:32:03;;;;;;;274.55;75.10;;;3.10;99.90;;;;;;5023847;28;20072;-74
2023/11/26 07:34:30;;;;;;;250.38;71.22;;;3.10;99.90;;;;;;5017547;28;20036;-74
2023/11/26 07:36:57;;;;;;;266.45;73.72;;;3.10;99.90;;;;;;5023764;28;20141;-76
2023/11/26 07:39:24;;;;;;;285.13;73.57;;;3.10;99.90;;;;;;5016312;28;20054;-77
2023/11/26 07:41:51;;;;;;;260.77;70.43;;;3.30;99.90;;;;;;5024371;28;20062;-75
2023/11/26 07:44:18;;;;;;;242.35;68.07;;;3.30;99.90;;;;;;5022731;28;20787;-76
2023/11/26 07:46:45;;;;;;;270.95;70.57;;;3.30;99.90;;;;;;5034981;28;20045;-75
2023/11/26 07:49:12;;;;;;;225.90;70.50;;;3.30;99.90;;;;;;5024111;28;20124;-76
2023/11/26 07:51:38;;;;;;;213.55;70.00;;;3.30;99.90;;;;;;5015971;28;20040;-75
2023/11/26 07:54:05;;;;;;;223.73;71.72;;;3.30;99.90;;;;;;5010872;28;20060;-76
2023/11/26 07:56:41;;;;;;;211.73;68.45;;;3.40;99.90;;;;;;5013770;28;20072;-75
2023/11/26 07:59:08;;;;;;;206.13;70.72;;;3.30;99.90;;;;;;5024944;28;20056;-75
2023/11/26 08:01:35;;;;;;;213.65;68.20;;;3.30;99.90;;;;;;5025824;28;20049;-74
2023/11/26 08:04:02;;;;;;;192.98;60.38;;;3.40;99.90;;;;;;5046830;28;20044;-74
2023/11/26 08:06:30;;;;;;;181.93;58.00;;;3.30;99.90;;;;;;5030653;28;20048;-76
2023/11/26 08:08:58;;;;;;;161.05;50.63;;;3.40;99.90;;;;;;5023190;28;20139;-75
2023/11/26 08:11:31;;;;;;;146.75;48.72;;;3.30;99.90;;;;;;5043039;28;20038;-75
2023/11/26 08:14:01;;;;;;;141.15;46.97;;;3.40;99.90;;;;;;5027389;28;20107;-75
2023/11/26 08:16:28;;;;;;;140.40;45.65;;;3.40;99.90;;;;;;5016789;28;20103;-76
2023/11/26 08:18:58;;;;;;;153.88;48.33;;;3.40;99.90;;;;;;5018850;28;20071;-75
2023/11/26 08:21:32;;;;;;;151.23;53.35;;;3.40;99.90;;;;;;5002644;28;20103;-75
2023/11/26 08:24:01;;;;;;;136.57;51.30;;;3.40;99.90;;;;;;5028479;28;20056;-75
2023/11/26 08:26:33;;;;;;;119.85;46.47;;;3.50;99.90;;;;;;5010253;28;20037;-74
2023/11/26 08:29:16;;;;;;;125.93;47.80;;;3.40;99.90;;;;;;5015788;28;20059;-76
2023/11/26 08:31:47;;;;;;;106.57;43.33;;;3.40;99.90;;;;;;5024124;28;20109;-74
2023/11/26 08:34:16;;;;;;;98.82;41.78;;;3.50;99.90;;;;;;5030397;28;20124;-75
2023/11/26 08:36:43;;;;;;;104.75;47.20;;;3.40;99.90;;;;;;5019304;28;20735;-75
2023/11/26 08:39:42;;;;;;;97.13;41.60;;;3.50;99.90;;;;;;5025400;28;20781;-75
2023/11/26 08:42:10;;;;;;;92.32;41.10;;;3.50;99.90;;;;;;5013889;28;20045;-76
2023/11/26 08:44:38;;;;;;;109.22;40.95;;;3.50;99.90;;;;;;5019835;28;20033;-74
2023/11/26 08:47:06;;;;;;;91.38;42.20;;;3.50;99.90;;;;;;5027596;28;20079;-75
2023/11/26 08:49:35;;;;;;;96.85;38.03;;;3.50;99.90;;;;;;5005245;28;20073;-76
2023/11/26 08:52:03;;;;;;;94.15;39.85;;;3.50;99.90;;;;;;5030392;28;20147;-75
2023/11/26 08:54:30;;;;;;;96.13;38.47;;;3.50;99.90;;;;;;5017372;28;20053;-72
2023/11/26 08:56:57;;;;;;;99.47;38.22;;;3.50;99.90;;;;;;5026036;28;20140;-75
2023/11/26 08:59:24;;;;;;;99.70;41.03;;;3.70;99.90;;;;;;5015315;28;20700;-75
2023/11/26 09:01:56;;;;;;;97.07;39.90;;;3.70;99.90;;;;;;5020798;28;20136;-76
2023/11/26 09:04:27;;;;;;;85.65;36.55;;;3.80;99.90;;;;;;5020546;28;20240;-74
2023/11/26 09:06:57;;;;;;;93.15;36.85;;;3.80;99.90;;;;;;5009332;28;20045;-75
2023/11/26 09:09:32;;;;;;;83.15;36.78;;;3.80;99.90;;;;;;5024543;28;20060;-75
2023/11/26 09:12:07;;;;;;;96.80;34.97;;;3.70;99.90;;;;;;5017539;28;20038;-74
2023/11/26 09:14:34;;;;;;;90.13;34.80;;;3.80;99.90;;;;;;5014349;28;20191;-75
2023/11/26 09:17:03;;;;;;;100.60;34.30;;;3.80;99.90;;;;;;5024895;28;20092;-75
2023/11/26 09:19:29;;;;;;;97.15;35.22;;;3.80;99.90;;;;;;5017559;28;20045;-75
2023/11/26 09:22:01;;;;;;;95.28;38.78;;;3.80;99.90;;;;;;5018154;28;20056;-75
2023/11/26 09:24:48;;;;;;;103.53;40.75;;;3.80;99.90;;;;;;5021832;28;20665;-74
2023/11/26 09:27:26;;;;;;;100.72;38.33;;;3.70;99.90;;;;;;5016310;28;20041;-75
2023/11/26 09:29:53;;;;;;;88.53;38.20;;;3.60;99.90;;;;;;5024755;28;20732;-76
2023/11/26 09:32:20;;;;;;;97.10;38.65;;;3.60;99.90;;;;;;5024253;28;20467;-75
2023/11/26 09:34:52;;;;;;;98.18;39.58;;;3.60;99.90;;;;;;5022485;28;20711;-76
2023/11/26 09:37:28;;;;;;;101.07;40.72;;;3.60;99.90;;;;;;5025387;28;20041;-75
2023/11/26 09:40:08;;;;;;;114.13;41.25;;;3.60;99.90;;;;;;5022860;28;20076;-75
2023/11/26 09:42:38;;;;;;;109.50;41.90;;;3.60;99.90;;;;;;5027094;28;20068;-75
2023/11/26 09:45:05;;;;;;;113.15;44.13;;;3.60;99.90;;;;;;5019899;28;20056;-74
2023/11/26 09:47:41;;;;;;;111.68;44.17;;;3.60;99.90;;;;;;5025415;28;20044;-74
2023/11/26 09:50:09;;;;;;;117.35;49.05;;;3.70;99.90;;;;;;5010028;28;20037;-75
2023/11/26 09:52:37;;;;;;;122.30;50.55;;;3.70;99.90;;;;;;5028259;28;20046;-75
2023/11/26 09:55:06;;;;;;;113.35;46.10;;;3.70;99.90;;;;;;5027138;28;20044;-75
2023/11/26 09:57:33;;;;;;;138.07;51.38;;;3.70;99.90;;;;;;5018604;28;20051;-75
2023/11/26 10:00:01;;;;;;;138.60;54.00;;;3.70;99.90;;;;;;5021823;28;20040;-76
2023/11/26 10:02:31;;;;;;;132.65;53.65;;;3.70;99.90;;;;;;5023318;28;20037;-75
2023/11/26 10:05:00;;;;;;;144.25;58.25;;;3.80;99.90;;;;;;5019918;28;20199;-75
2023/11/26 10:07:35;;;;;;;159.23;60.28;;;3.80;99.90;;;;;;5019649;28;20044;-74
2023/11/26 10:10:10;;;;;;;161.40;63.83;;;3.80;99.90;;;;;;5014835;28;20041;-74
2023/11/26 10:12:53;;;;;;;143.20;57.45;;;3.80;99.90;;;;;;5028954;28;20747;-74
2023/11/26 10:15:22;;;;;;;157.82;58.00;;;3.80;99.90;;;;;;5027273;28;20216;-75
2023/11/26 10:18:05;;;;;;;145.55;55.05;;;3.80;99.90;;;;;;5023481;28;20052;-76
2023/11/26 10:21:06;;;;;;;146.35;57.75;;;3.80;99.90;;;;;;5043886;28;20099;-74
2023/11/26 10:23:44;;;;;;;149.27;56.40;;;3.80;99.90;;;;;;5022621;28;20103;-74
2023/11/26 10:26:19;;;;;;;150.75;56.95;;;3.90;99.90;;;;;;5010159;28;20586;-75
2023/11/26 10:29:30;;;;;;;153.40;60.90;;;3.90;99.90;;;;;;5013173;28;20045;-75
2023/11/26 10:32:06;;;;;;;157.13;60.83;;;3.90;99.90;;;;;;5015221;28;20079;-74
2023/11/26 10:34:35;;;;;;;133.55;54.65;;;3.90;99.90;;;;;;5023425;28;20128;-74
2023/11/26 10:37:18;;;;;;;141.88;55.45;;;3.90;99.90;;;;;;5024407;28;20049;-75
2023/11/26 10:39:52;;;;;;;143.70;57.65;;;3.90;99.90;;;;;;5016637;28;20779;-75
2023/11/26 10:42:20;;;;;;;144.45;57.80;;;3.90;99.90;;;;;;5008108;28;20103;-75
2023/11/26 10:44:53;;;;;;;174.27;62.53;;;3.90;99.90;;;;;;5014864;28;20033;-76
2023/11/26 10:47:30;;;;;;;166.93;58.83;;;4.00;99.90;;;;;;5019825;28;20416;-75
2023/11/26 10:50:03;;;;;;;151.02;60.33;;;4.00;99.90;;;;;;5017986;28;20217;-74
2023/11/26 10:52:49;;;;;;;158.93;61.85;;;4.00;99.90;;;;;;5029485;28;20037;-75
2023/11/26 10:55:32;;;;;;;162.77;61.58;;;4.00;99.90;;;;;;5027709;28;20044;-74
2023/11/26 10:58:19;;;;;;;156.70;60.72;;;4.10;99.90;;;;;;5019021;28;20045;-73
2023/11/26 11:00:50;;;;;;;148.07;58.65;;;4.00;99.90;;;;;;5019433;28;20047;-75
2023/11/26 11:03:17;;;;;;;153.00;59.83;;;4.10;99.90;;;;;;5004377;28;20746;-75
2023/11/26 11:05:48;;;;;;;155.20;61.38;;;4.10;99.90;;;;;;5020057;28;20106;-76
2023/11/26 11:08:16;;;;;;;153.75;65.95;;;4.10;99.90;;;;;;5020181;28;20139;-77
2023/11/26 11:10:59;;;;;;;144.07;60.17;;;4.10;99.90;;;;;;5020079;28;20119;-75
2023/11/26 11:13:28;;;;;;;138.15;58.95;;;4.00;99.90;;;;;;5006892;28;20064;-77
2023/11/26 11:15:55;;;;;;;160.88;61.75;;;4.10;99.90;;;;;;5016179;28;20099;-75
2023/11/26 11:18:38;;;;;;;159.45;63.63;;;4.10;99.90;;;;;;5019818;28;20686;-76
2023/11/26 11:21:16;;;;;;;156.55;61.88;;;4.20;99.90;;;;;;5022410;28;20038;-76
2023/11/26 11:23:49;;;;;;;164.73;66.50;;;4.10;99.90;;;;;;5022582;28;20052;-75
2023/11/26 11:26:22;;;;;;;152.23;62.13;;;4.10;99.90;;;;;;5026414;28;20051;-76
2023/11/26 11:28:56;;;;;;;148.98;58.97;;;4.10;99.90;;;;;;5013158;28;20037;-76
2023/11/26 11:31:58;;;;;;;146.70;59.60;;;4.10;99.90;;;;;;5028008;28;20051;-76
2023/11/26 11:34:32;;;;;;;148.02;59.88;;;4.10;99.90;;;;;;5015138;28;20045;-75
2023/11/26 11:37:01;;;;;;;144.70;59.40;;;4.20;99.90;;;;;;5021059;28;20651;-76
2023/11/26 11:39:53;;;;;;;122.10;56.78;;;4.10;99.90;;;;;;5018844;28;20045;-74
2023/11/26 11:42:35;;;;;;;125.57;55.78;;;4.10;99.90;;;;;;5023942;28;20029;-75
2023/11/26 11:45:28;;;;;;;140.82;59.17;;;4.20;99.90;;;;;;5030220;28;20041;-76
2023/11/26 11:47:55;;;;;;;155.02;62.40;;;4.20;99.90;;;;;;5024601;28;20037;-76
2023/11/26 11:50:29;;;;;;;143.65;60.17;;;4.20;99.90;;;;;;5014745;28;20041;-76
2023/11/26 11:52:57;;;;;;;141.65;60.20;;;4.20;99.90;;;;;;5030427;28;20053;-75
2023/11/26 11:55:47;;;;;;;134.75;56.97;;;4.30;99.90;;;;;;5028811;28;20049;-77
2023/11/26 11:58:14;;;;;;;131.65;59.05;;;4.20;99.90;;;;;;5019709;28;20546;-76
2023/11/26 12:00:43;;;;;;;132.68;57.95;;;4.20;99.90;;;;;;5002315;28;20032;-76
2023/11/26 12:03:15;;;;;;;138.60;60.03;;;4.20;99.90;;;;;;5018976;28;20112;-76
2023/11/26 12:05:42;;;;;;;143.25;60.97;;;4.20;99.90;;;;;;5018572;28;20265;-75
2023/11/26 12:08:13;;;;;;;151.95;60.42;;;4.20;99.90;;;;;;5019422;28;20057;-76
2023/11/26 12:10:46;;;;;;;142.10;59.13;;;4.20;99.90;;;;;;5018411;28;20052;-76
2023/11/26 12:13:14;;;;;;;146.18;59.83;;;4.30;99.90;;;;;;5008466;28;20497;-74
2023/11/26 12:15:54;;;;;;;140.15;59.40;;;4.30;99.90;;;;;;5021935;28;20510;-76
2023/11/26 12:18:21;;;;;;;133.73;57.90;;;4.30;99.90;;;;;;5022990;28;20529;-76
2023/11/26 12:20:48;;;;;;;136.68;58.50;;;4.30;99.90;;;;;;5003560;28;20040;-76
2023/11/26 12:23:15;;;;;;;133.18;61.38;;;4.30;99.90;;;;;;5017699;28;20045;-75
2023/11/26 12:25:56;;;;;;;133.00;59.78;;;4.30;99.90;;;;;;5019521;28;20076;-76
2023/11/26 12:28:23;;;;;;;116.93;50.72;;;4.30;99.90;;;;;;5004517;28;20073;-75
2023/11/26 12:30:59;;;;;;;125.18;53.08;;;4.30;99.90;;;;;;5018989;28;20045;-75
2023/11/26 12:33:29;;;;;;;121.15;54.15;;;4.30;99.90;;;;;;5022897;28;20102;-74
2023/11/26 12:36:14;;;;;;;114.43;54.30;;;4.30;99.90;;;;;;5016953;28;20063;-75
2023/11/26 12:38:45;;;;;;;125.93;55.58;;;4.30;99.90;;;;;;5019983;28;20049;-75
2023/11/26 12:41:12;;;;;;;119.63;52.80;;;4.30;99.90;;;;;;5026590;28;20045;-76